sensor_id;sensor_type;location;lat;lon;timestamp;temperature;humidity
11221;DHT22;8517;53.546;10.104;2022-10-13T00:01:16;12.50;99.90
11221;DHT22;8517;53.546;10.104;2022-10-13T00:03:43;12.50;99.90
11221;DHT22;8517;53.546;10.104;2022-10-13T00:06:13;12.50;99.90
11221;DHT22;8517;53.546;10.104;2022-10-13T00:08:41;12.50;99.90
11221;DHT22;8517;53.546;10.104;2022-10-13T00:11:10;12.50;99.90
11221;DHT22;8517;53.546;10.104;2022-10-13T00:13:37;12.50;99.90
11221;DHT22;8517;53.546;10.104;2022-10-13T00:16:04;12.50;99.90
11221;DHT22;8517;53.546;10.104;2022-10-13T00:18:33;12.50;99.90
11221;DHT22;8517;53.546;10.104;2022-10-13T00:20:59;12.50;99.90
11221;DHT22;8517;53.546;10.104;2022-10-13T00:23:26;12.50;99.90
11221;DHT22;8517;53.546;10.104;2022-10-13T00:25:53;12.50;99.90
11221;DHT22;8517;53.546;10.104;2022-10-13T00:28:19;12.50;99.90
11221;DHT22;8517;53.546;10.104;2022-10-13T00:30:46;12.50;99.90
11221;DHT22;8517;53.546;10.104;2022-10-13T00:33:13;12.40;99.90
11221;DHT22;8517;53.546;10.104;2022-10-13T00:35:42;12.40;99.90
11221;DHT22;8517;53.546;10.104;2022-10-13T00:38:10;12.40;99.90
11221;DHT22;8517;53.546;10.104;2022-10-13T00:40:45;12.40;99.90
11221;DHT22;8517;53.546;10.104;2022-10-13T00:43:16;12.40;99.90
11221;DHT22;8517;53.546;10.104;2022-10-13T00:45:44;12.40;99.90
11221;DHT22;8517;53.546;10.104;2022-10-13T00:48:11;12.30;99.90
11221;DHT22;8517;53.546;10.104;2022-10-13T00:50:42;12.30;99.90
11221;DHT22;8517;53.546;10.104;2022-10-13T00:53:09;12.30;99.90
11221;DHT22;8517;53.546;10.104;2022-10-13T00:55:38;12.30;99.90
11221;DHT22;8517;53.546;10.104;2022-10-13T00:58:09;12.30;99.90
11221;DHT22;8517;53.546;10.104;2022-10-13T01:00:42;12.30;99.90
11221;DHT22;8517;53.546;10.104;2022-10-13T01:03:10;12.30;99.90
11221;DHT22;8517;53.546;10.104;2022-10-13T01:05:38;12.30;99.90
11221;DHT22;8517;53.546;10.104;2022-10-13T01:08:06;12.20;99.90
11221;DHT22;8517;53.546;10.104;2022-10-13T01:10:38;12.20;99.90
11221;DHT22;8517;53.546;10.104;2022-10-13T01:13:13;12.20;99.90
11221;DHT22;8517;53.546;10.104;2022-10-13T01:15:48;12.20;99.90
11221;DHT22;8517;53.546;10.104;2022-10-13T01:18:22;12.10;99.90
11221;DHT22;8517;53.546;10.104;2022-10-13T01:21:15;12.10;99.90
11221;DHT22;8517;53.546;10.104;2022-10-13T01:27:07;12.10;99.90
11221;DHT22;8517;53.546;10.104;2022-10-13T01:30:08;12.10;99.90
11221;DHT22;8517;53.546;10.104;2022-10-13T01:32:44;12.00;99.90
11221;DHT22;8517;53.546;10.104;2022-10-13T01:35:18;12.00;99.90
11221;DHT22;8517;53.546;10.104;2022-10-13T01:37:49;12.00;99.90
11221;DHT22;8517;53.546;10.104;2022-10-13T01:40:21;12.00;99.90
11221;DHT22;8517;53.546;10.104;2022-10-13T01:42:54;11.90;99.90
11221;DHT22;8517;53.546;10.104;2022-10-13T01:45:28;11.90;99.90
11221;DHT22;8517;53.546;10.104;2022-10-13T01:47:57;11.90;99.90
11221;DHT22;8517;53.546;10.104;2022-10-13T01:50:25;11.90;99.90
11221;DHT22;8517;53.546;10.104;2022-10-13T01:52:52;11.80;99.90
11221;DHT22;8517;53.546;10.104;2022-10-13T01:55:18;11.80;99.90
11221;DHT22;8517;53.546;10.104;2022-10-13T01:57:45;11.70;99.90
11221;DHT22;8517;53.546;10.104;2022-10-13T02:00:14;11.70;99.90
11221;DHT22;8517;53.546;10.104;2022-10-13T02:02:47;11.70;99.90
11221;DHT22;8517;53.546;10.104;2022-10-13T02:05:24;11.70;99.90
11221;DHT22;8517;53.546;10.104;2022-10-13T02:08:02;11.60;99.90
11221;DHT22;8517;53.546;10.104;2022-10-13T02:10:33;11.60;99.90
11221;DHT22;8517;53.546;10.104;2022-10-13T02:13:05;11.60;99.90
11221;DHT22;8517;53.546;10.104;2022-10-13T02:15:36;11.60;99.90
11221;DHT22;8517;53.546;10.104;2022-10-13T02:18:06;11.50;99.90
11221;DHT22;8517;53.546;10.104;2022-10-13T02:20:37;11.50;99.90
11221;DHT22;8517;53.546;10.104;2022-10-13T02:23:08;11.50;99.90
11221;DHT22;8517;53.546;10.104;2022-10-13T02:25:36;11.50;99.90
11221;DHT22;8517;53.546;10.104;2022-10-13T02:28:04;11.40;99.90
11221;DHT22;8517;53.546;10.104;2022-10-13T02:30:32;11.40;99.90
11221;DHT22;8517;53.546;10.104;2022-10-13T02:33:04;11.40;99.90
11221;DHT22;8517;53.546;10.104;2022-10-13T02:35:44;11.40;99.90
11221;DHT22;8517;53.546;10.104;2022-10-13T02:38:11;11.40;99.90
11221;DHT22;8517;53.546;10.104;2022-10-13T02:40:39;11.50;99.90
11221;DHT22;8517;53.546;10.104;2022-10-13T02:43:08;11.40;99.90
11221;DHT22;8517;53.546;10.104;2022-10-13T02:45:34;11.40;99.90
11221;DHT22;8517;53.546;10.104;2022-10-13T02:48:01;11.40;99.90
11221;DHT22;8517;53.546;10.104;2022-10-13T02:50:29;11.40;99.90
11221;DHT22;8517;53.546;10.104;2022-10-13T02:53:20;11.30;99.90
11221;DHT22;8517;53.546;10.104;2022-10-13T02:55:46;11.30;99.90
11221;DHT22;8517;53.546;10.104;2022-10-13T02:58:13;11.30;99.90
11221;DHT22;8517;53.546;10.104;2022-10-13T03:00:40;11.30;99.90
11221;DHT22;8517;53.546;10.104;2022-10-13T03:03:07;11.30;99.90
11221;DHT22;8517;53.546;10.104;2022-10-13T03:05:35;11.30;99.90
11221;DHT22;8517;53.546;10.104;2022-10-13T03:08:01;11.30;99.90
11221;DHT22;8517;53.546;10.104;2022-10-13T03:10:28;11.30;99.90
11221;DHT22;8517;53.546;10.104;2022-10-13T03:12:57;11.30;99.90
11221;DHT22;8517;53.546;10.104;2022-10-13T03:15:23;11.20;99.90
11221;DHT22;8517;53.546;10.104;2022-10-13T03:17:50;11.30;99.90
11221;DHT22;8517;53.546;10.104;2022-10-13T03:20:17;11.20;99.90
11221;DHT22;8517;53.546;10.104;2022-10-13T03:22:45;11.20;99.90
11221;DHT22;8517;53.546;10.104;2022-10-13T03:25:12;11.20;99.90
11221;DHT22;8517;53.546;10.104;2022-10-13T03:27:38;11.20;99.90
11221;DHT22;8517;53.546;10.104;2022-10-13T03:30:06;11.20;99.90
11221;DHT22;8517;53.546;10.104;2022-10-13T03:36:05;11.20;99.90
11221;DHT22;8517;53.546;10.104;2022-10-13T03:38:34;11.20;99.90
11221;DHT22;8517;53.546;10.104;2022-10-13T03:41:04;11.20;99.90
11221;DHT22;8517;53.546;10.104;2022-10-13T03:43:31;11.10;99.90
11221;DHT22;8517;53.546;10.104;2022-10-13T03:45:59;11.10;99.90
11221;DHT22;8517;53.546;10.104;2022-10-13T03:48:26;11.10;99.90
11221;DHT22;8517;53.546;10.104;2022-10-13T03:51:06;11.20;99.90
11221;DHT22;8517;53.546;10.104;2022-10-13T03:53:34;11.10;99.90
11221;DHT22;8517;53.546;10.104;2022-10-13T03:56:01;11.10;99.90
11221;DHT22;8517;53.546;10.104;2022-10-13T03:58:28;11.10;99.90
11221;DHT22;8517;53.546;10.104;2022-10-13T04:00:56;11.00;99.90
11221;DHT22;8517;53.546;10.104;2022-10-13T04:03:23;11.00;99.90
11221;DHT22;8517;53.546;10.104;2022-10-13T04:05:49;11.00;99.90
11221;DHT22;8517;53.546;10.104;2022-10-13T04:08:19;11.00;99.90
11221;DHT22;8517;53.546;10.104;2022-10-13T04:10:47;11.00;99.90
11221;DHT22;8517;53.546;10.104;2022-10-13T04:13:13;11.00;99.90
11221;DHT22;8517;53.546;10.104;2022-10-13T04:15:40;11.00;99.90
11221;DHT22;8517;53.546;10.104;2022-10-13T04:18:07;11.00;99.90
11221;DHT22;8517;53.546;10.104;2022-10-13T04:20:36;11.00;99.90
11221;DHT22;8517;53.546;10.104;2022-10-13T04:23:03;11.00;99.90
11221;DHT22;8517;53.546;10.104;2022-10-13T04:25:37;11.00;99.90
11221;DHT22;8517;53.546;10.104;2022-10-13T04:28:06;11.00;99.90
11221;DHT22;8517;53.546;10.104;2022-10-13T04:30:33;11.10;99.90
11221;DHT22;8517;53.546;10.104;2022-10-13T04:36:11;11.00;99.90
11221;DHT22;8517;53.546;10.104;2022-10-13T04:38:38;11.10;99.90
11221;DHT22;8517;53.546;10.104;2022-10-13T04:41:06;11.10;99.90
11221;DHT22;8517;53.546;10.104;2022-10-13T04:43:35;11.10;99.90
11221;DHT22;8517;53.546;10.104;2022-10-13T04:46:02;11.00;99.90
11221;DHT22;8517;53.546;10.104;2022-10-13T04:48:29;11.10;99.90
11221;DHT22;8517;53.546;10.104;2022-10-13T04:51:00;11.10;99.90
11221;DHT22;8517;53.546;10.104;2022-10-13T04:53:27;11.00;99.90
11221;DHT22;8517;53.546;10.104;2022-10-13T04:55:54;11.00;99.90
11221;DHT22;8517;53.546;10.104;2022-10-13T04:58:21;11.00;99.90
11221;DHT22;8517;53.546;10.104;2022-10-13T05:00:49;11.00;99.90
11221;DHT22;8517;53.546;10.104;2022-10-13T05:03:16;11.00;99.90
11221;DHT22;8517;53.546;10.104;2022-10-13T05:05:43;11.00;99.90
11221;DHT22;8517;53.546;10.104;2022-10-13T05:08:09;11.00;99.90
11221;DHT22;8517;53.546;10.104;2022-10-13T05:10:36;11.00;99.90
11221;DHT22;8517;53.546;10.104;2022-10-13T05:13:03;11.00;99.90
11221;DHT22;8517;53.546;10.104;2022-10-13T05:15:30;10.90;99.90
11221;DHT22;8517;53.546;10.104;2022-10-13T05:17:58;11.00;99.90
11221;DHT22;8517;53.546;10.104;2022-10-13T05:20:25;11.00;99.90
11221;DHT22;8517;53.546;10.104;2022-10-13T05:22:52;11.00;99.90
11221;DHT22;8517;53.546;10.104;2022-10-13T05:25:19;11.00;99.90
11221;DHT22;8517;53.546;10.104;2022-10-13T05:27:45;11.00;99.90
11221;DHT22;8517;53.546;10.104;2022-10-13T05:30:12;11.00;99.90
11221;DHT22;8517;53.546;10.104;2022-10-13T05:32:39;10.90;99.90
11221;DHT22;8517;53.546;10.104;2022-10-13T05:35:08;10.90;99.90
11221;DHT22;8517;53.546;10.104;2022-10-13T05:37:34;10.90;99.90
11221;DHT22;8517;53.546;10.104;2022-10-13T05:40:01;10.90;99.90
11221;DHT22;8517;53.546;10.104;2022-10-13T05:42:29;10.90;99.90
11221;DHT22;8517;53.546;10.104;2022-10-13T05:44:55;10.90;99.90
11221;DHT22;8517;53.546;10.104;2022-10-13T05:47:22;10.90;99.90
11221;DHT22;8517;53.546;10.104;2022-10-13T05:49:52;10.90;99.90
11221;DHT22;8517;53.546;10.104;2022-10-13T05:52:21;10.90;99.90
11221;DHT22;8517;53.546;10.104;2022-10-13T05:54:51;10.90;99.90
11221;DHT22;8517;53.546;10.104;2022-10-13T05:57:20;10.90;99.90
11221;DHT22;8517;53.546;10.104;2022-10-13T05:59:51;10.90;99.90
11221;DHT22;8517;53.546;10.104;2022-10-13T06:02:21;10.90;99.90
11221;DHT22;8517;53.546;10.104;2022-10-13T06:04:52;10.90;99.90
11221;DHT22;8517;53.546;10.104;2022-10-13T06:07:21;10.90;99.90
11221;DHT22;8517;53.546;10.104;2022-10-13T06:09:48;10.90;99.90
11221;DHT22;8517;53.546;10.104;2022-10-13T06:12:15;10.90;99.90
11221;DHT22;8517;53.546;10.104;2022-10-13T06:14:42;10.90;99.90
11221;DHT22;8517;53.546;10.104;2022-10-13T06:17:08;10.90;99.90
11221;DHT22;8517;53.546;10.104;2022-10-13T06:19:35;10.90;99.90
11221;DHT22;8517;53.546;10.104;2022-10-13T06:22:02;10.90;99.90
11221;DHT22;8517;53.546;10.104;2022-10-13T06:24:30;11.00;99.90
11221;DHT22;8517;53.546;10.104;2022-10-13T06:26:57;11.00;99.90
11221;DHT22;8517;53.546;10.104;2022-10-13T06:29:23;11.00;99.90
11221;DHT22;8517;53.546;10.104;2022-10-13T06:31:50;11.00;99.90
11221;DHT22;8517;53.546;10.104;2022-10-13T06:34:17;11.10;99.90
11221;DHT22;8517;53.546;10.104;2022-10-13T06:36:43;11.10;99.90
11221;DHT22;8517;53.546;10.104;2022-10-13T06:39:10;11.10;99.90
11221;DHT22;8517;53.546;10.104;2022-10-13T06:41:38;11.10;99.90
11221;DHT22;8517;53.546;10.104;2022-10-13T06:44:05;11.10;99.90
11221;DHT22;8517;53.546;10.104;2022-10-13T06:46:31;11.10;99.90
11221;DHT22;8517;53.546;10.104;2022-10-13T06:48:58;11.10;99.90
11221;DHT22;8517;53.546;10.104;2022-10-13T06:51:25;11.10;99.90
11221;DHT22;8517;53.546;10.104;2022-10-13T06:53:51;11.10;99.90
11221;DHT22;8517;53.546;10.104;2022-10-13T06:56:18;11.10;99.90
11221;DHT22;8517;53.546;10.104;2022-10-13T06:58:46;11.10;99.90
11221;DHT22;8517;53.546;10.104;2022-10-13T07:01:13;11.10;99.90
11221;DHT22;8517;53.546;10.104;2022-10-13T07:03:40;11.10;99.90
11221;DHT22;8517;53.546;10.104;2022-10-13T07:06:07;11.10;99.90
11221;DHT22;8517;53.546;10.104;2022-10-13T07:08:34;11.10;99.90
11221;DHT22;8517;53.546;10.104;2022-10-13T07:11:06;11.20;99.90
11221;DHT22;8517;53.546;10.104;2022-10-13T07:13:33;11.30;99.90
11221;DHT22;8517;53.546;10.104;2022-10-13T07:16:03;11.30;99.90
11221;DHT22;8517;53.546;10.104;2022-10-13T07:18:30;11.40;99.90
11221;DHT22;8517;53.546;10.104;2022-10-13T07:20:57;11.40;99.90
11221;DHT22;8517;53.546;10.104;2022-10-13T07:23:24;11.50;99.90
11221;DHT22;8517;53.546;10.104;2022-10-13T07:25:51;11.50;99.90
11221;DHT22;8517;53.546;10.104;2022-10-13T07:28:19;11.60;99.90
11221;DHT22;8517;53.546;10.104;2022-10-13T07:30:46;11.70;99.90
11221;DHT22;8517;53.546;10.104;2022-10-13T07:33:14;11.70;99.90
11221;DHT22;8517;53.546;10.104;2022-10-13T07:35:40;11.70;99.90
11221;DHT22;8517;53.546;10.104;2022-10-13T07:38:07;11.70;99.90
11221;DHT22;8517;53.546;10.104;2022-10-13T07:40:34;11.80;99.90
11221;DHT22;8517;53.546;10.104;2022-10-13T07:43:01;11.80;99.90
11221;DHT22;8517;53.546;10.104;2022-10-13T07:45:28;11.80;99.90
11221;DHT22;8517;53.546;10.104;2022-10-13T07:47:55;11.80;99.90
11221;DHT22;8517;53.546;10.104;2022-10-13T07:50:23;11.90;99.90
11221;DHT22;8517;53.546;10.104;2022-10-13T07:52:50;11.90;99.90
11221;DHT22;8517;53.546;10.104;2022-10-13T07:55:16;12.00;99.90
11221;DHT22;8517;53.546;10.104;2022-10-13T07:57:43;12.00;99.90
11221;DHT22;8517;53.546;10.104;2022-10-13T08:00:11;12.00;99.90
11221;DHT22;8517;53.546;10.104;2022-10-13T08:02:37;12.00;99.90
11221;DHT22;8517;53.546;10.104;2022-10-13T08:05:04;12.10;99.90
11221;DHT22;8517;53.546;10.104;2022-10-13T08:07:33;12.10;99.90
11221;DHT22;8517;53.546;10.104;2022-10-13T08:10:00;12.20;99.90
11221;DHT22;8517;53.546;10.104;2022-10-13T08:12:27;12.30;99.90
11221;DHT22;8517;53.546;10.104;2022-10-13T08:14:54;12.30;99.90
11221;DHT22;8517;53.546;10.104;2022-10-13T08:17:20;12.40;99.90
11221;DHT22;8517;53.546;10.104;2022-10-13T08:19:49;12.40;99.90
11221;DHT22;8517;53.546;10.104;2022-10-13T08:22:15;12.50;99.90
11221;DHT22;8517;53.546;10.104;2022-10-13T08:24:43;12.50;99.90
11221;DHT22;8517;53.546;10.104;2022-10-13T08:27:20;12.60;99.90
11221;DHT22;8517;53.546;10.104;2022-10-13T08:29:47;12.70;99.90
11221;DHT22;8517;53.546;10.104;2022-10-13T08:32:14;12.70;99.90
11221;DHT22;8517;53.546;10.104;2022-10-13T08:34:41;12.80;99.90
11221;DHT22;8517;53.546;10.104;2022-10-13T08:37:12;12.80;99.90
11221;DHT22;8517;53.546;10.104;2022-10-13T08:39:39;12.90;99.90
11221;DHT22;8517;53.546;10.104;2022-10-13T08:42:13;12.90;99.90
11221;DHT22;8517;53.546;10.104;2022-10-13T08:44:44;13.00;99.90
11221;DHT22;8517;53.546;10.104;2022-10-13T08:47:17;13.10;99.90
11221;DHT22;8517;53.546;10.104;2022-10-13T08:49:46;13.20;99.90
11221;DHT22;8517;53.546;10.104;2022-10-13T08:52:17;13.20;99.90
11221;DHT22;8517;53.546;10.104;2022-10-13T08:54:45;13.20;99.90
11221;DHT22;8517;53.546;10.104;2022-10-13T08:57:13;13.30;99.90
11221;DHT22;8517;53.546;10.104;2022-10-13T08:59:39;13.40;99.90
11221;DHT22;8517;53.546;10.104;2022-10-13T09:02:11;13.40;99.90
11221;DHT22;8517;53.546;10.104;2022-10-13T09:04:40;13.50;99.90
11221;DHT22;8517;53.546;10.104;2022-10-13T09:07:12;13.60;99.90
11221;DHT22;8517;53.546;10.104;2022-10-13T09:09:40;13.60;99.90
11221;DHT22;8517;53.546;10.104;2022-10-13T09:12:09;13.70;99.90
11221;DHT22;8517;53.546;10.104;2022-10-13T09:14:39;13.70;99.90
11221;DHT22;8517;53.546;10.104;2022-10-13T09:17:14;13.70;99.90
11221;DHT22;8517;53.546;10.104;2022-10-13T09:19:41;13.70;99.90
11221;DHT22;8517;53.546;10.104;2022-10-13T09:22:20;13.80;99.90
11221;DHT22;8517;53.546;10.104;2022-10-13T09:24:48;13.90;99.90
11221;DHT22;8517;53.546;10.104;2022-10-13T09:27:27;13.90;99.90
11221;DHT22;8517;53.546;10.104;2022-10-13T09:29:55;14.00;99.90
11221;DHT22;8517;53.546;10.104;2022-10-13T09:32:33;14.10;99.90
11221;DHT22;8517;53.546;10.104;2022-10-13T09:35:19;14.10;99.90
11221;DHT22;8517;53.546;10.104;2022-10-13T09:37:47;14.20;99.90
11221;DHT22;8517;53.546;10.104;2022-10-13T09:40:26;14.30;99.90
11221;DHT22;8517;53.546;10.104;2022-10-13T09:42:55;14.40;99.90
11221;DHT22;8517;53.546;10.104;2022-10-13T09:45:25;14.50;99.90
11221;DHT22;8517;53.546;10.104;2022-10-13T09:47:54;14.60;99.90
11221;DHT22;8517;53.546;10.104;2022-10-13T09:50:25;14.70;99.90
11221;DHT22;8517;53.546;10.104;2022-10-13T09:52:54;14.80;99.90
11221;DHT22;8517;53.546;10.104;2022-10-13T09:55:35;14.90;99.90
11221;DHT22;8517;53.546;10.104;2022-10-13T09:58:04;15.00;99.90
11221;DHT22;8517;53.546;10.104;2022-10-13T10:00:33;15.10;99.90
11221;DHT22;8517;53.546;10.104;2022-10-13T10:06:06;15.30;99.90
11221;DHT22;8517;53.546;10.104;2022-10-13T10:08:37;15.40;99.90
11221;DHT22;8517;53.546;10.104;2022-10-13T10:11:10;15.50;99.90
11221;DHT22;8517;53.546;10.104;2022-10-13T10:13:37;15.50;99.90
11221;DHT22;8517;53.546;10.104;2022-10-13T10:16:09;15.60;99.90
11221;DHT22;8517;53.546;10.104;2022-10-13T10:18:44;15.70;99.90
11221;DHT22;8517;53.546;10.104;2022-10-13T10:21:19;15.80;99.90
11221;DHT22;8517;53.546;10.104;2022-10-13T10:23:54;15.80;99.90
11221;DHT22;8517;53.546;10.104;2022-10-13T10:26:32;15.90;99.90
11221;DHT22;8517;53.546;10.104;2022-10-13T10:29:16;15.90;99.90
11221;DHT22;8517;53.546;10.104;2022-10-13T10:31:56;16.00;99.90
11221;DHT22;8517;53.546;10.104;2022-10-13T10:34:34;16.00;99.90
11221;DHT22;8517;53.546;10.104;2022-10-13T10:37:14;16.00;99.90
11221;DHT22;8517;53.546;10.104;2022-10-13T10:39:48;16.00;99.90
11221;DHT22;8517;53.546;10.104;2022-10-13T10:45:16;16.10;99.90
11221;DHT22;8517;53.546;10.104;2022-10-13T10:47:59;16.20;99.90
11221;DHT22;8517;53.546;10.104;2022-10-13T10:50:28;16.20;99.90
11221;DHT22;8517;53.546;10.104;2022-10-13T10:53:01;16.10;99.90
11221;DHT22;8517;53.546;10.104;2022-10-13T10:55:32;16.10;99.90
11221;DHT22;8517;53.546;10.104;2022-10-13T10:58:09;16.10;99.90
11221;DHT22;8517;53.546;10.104;2022-10-13T11:00:42;16.20;99.90
11221;DHT22;8517;53.546;10.104;2022-10-13T11:03:21;16.20;99.90
11221;DHT22;8517;53.546;10.104;2022-10-13T11:05:58;16.30;99.90
11221;DHT22;8517;53.546;10.104;2022-10-13T11:08:29;16.30;99.90
11221;DHT22;8517;53.546;10.104;2022-10-13T11:11:30;16.40;99.90
11221;DHT22;8517;53.546;10.104;2022-10-13T11:13:58;16.50;99.90
11221;DHT22;8517;53.546;10.104;2022-10-13T11:16:31;16.50;99.90
11221;DHT22;8517;53.546;10.104;2022-10-13T11:19:02;16.60;99.90
11221;DHT22;8517;53.546;10.104;2022-10-13T11:22:09;16.70;99.90
11221;DHT22;8517;53.546;10.104;2022-10-13T11:24:45;16.70;99.90
11221;DHT22;8517;53.546;10.104;2022-10-13T11:27:26;16.80;99.90
11221;DHT22;8517;53.546;10.104;2022-10-13T11:29:56;16.90;99.90
11221;DHT22;8517;53.546;10.104;2022-10-13T11:32:43;16.90;99.90
11221;DHT22;8517;53.546;10.104;2022-10-13T11:35:24;16.90;99.90
11221;DHT22;8517;53.546;10.104;2022-10-13T11:38:03;17.00;99.90
11221;DHT22;8517;53.546;10.104;2022-10-13T11:40:35;17.00;99.90
11221;DHT22;8517;53.546;10.104;2022-10-13T11:43:32;17.00;99.90
11221;DHT22;8517;53.546;10.104;2022-10-13T11:46:21;17.10;99.90
11221;DHT22;8517;53.546;10.104;2022-10-13T11:52:09;17.20;99.90
11221;DHT22;8517;53.546;10.104;2022-10-13T11:54:44;17.20;99.90
11221;DHT22;8517;53.546;10.104;2022-10-13T11:57:18;17.20;99.90
11221;DHT22;8517;53.546;10.104;2022-10-13T11:59:46;17.30;99.90
11221;DHT22;8517;53.546;10.104;2022-10-13T12:02:15;17.30;99.90
11221;DHT22;8517;53.546;10.104;2022-10-13T12:07:37;17.40;99.90
11221;DHT22;8517;53.546;10.104;2022-10-13T12:10:07;17.50;99.90
11221;DHT22;8517;53.546;10.104;2022-10-13T12:12:34;17.60;99.90
11221;DHT22;8517;53.546;10.104;2022-10-13T12:15:01;17.60;99.90
11221;DHT22;8517;53.546;10.104;2022-10-13T12:17:30;17.60;99.90
11221;DHT22;8517;53.546;10.104;2022-10-13T12:19:59;17.70;99.90
11221;DHT22;8517;53.546;10.104;2022-10-13T12:22:26;17.70;99.90
11221;DHT22;8517;53.546;10.104;2022-10-13T12:24:59;17.70;99.90
11221;DHT22;8517;53.546;10.104;2022-10-13T12:27:27;17.70;99.90
11221;DHT22;8517;53.546;10.104;2022-10-13T12:29:56;17.70;99.90
11221;DHT22;8517;53.546;10.104;2022-10-13T12:32:24;17.70;99.90
11221;DHT22;8517;53.546;10.104;2022-10-13T12:34:51;17.70;99.90
11221;DHT22;8517;53.546;10.104;2022-10-13T12:37:25;17.70;99.90
11221;DHT22;8517;53.546;10.104;2022-10-13T12:39:53;17.80;99.90
11221;DHT22;8517;53.546;10.104;2022-10-13T12:42:27;17.90;99.90
11221;DHT22;8517;53.546;10.104;2022-10-13T12:44:54;17.90;99.90
11221;DHT22;8517;53.546;10.104;2022-10-13T12:47:35;17.90;99.90
11221;DHT22;8517;53.546;10.104;2022-10-13T12:50:36;18.00;99.90
11221;DHT22;8517;53.546;10.104;2022-10-13T12:53:08;18.10;99.90
11221;DHT22;8517;53.546;10.104;2022-10-13T12:55:45;18.20;99.90
11221;DHT22;8517;53.546;10.104;2022-10-13T12:58:18;18.20;99.90
11221;DHT22;8517;53.546;10.104;2022-10-13T13:00:58;18.30;99.90
11221;DHT22;8517;53.546;10.104;2022-10-13T13:03:28;18.30;99.90
11221;DHT22;8517;53.546;10.104;2022-10-13T13:06:22;18.40;99.90
11221;DHT22;8517;53.546;10.104;2022-10-13T13:11:48;18.50;99.90
11221;DHT22;8517;53.546;10.104;2022-10-13T13:14:37;18.60;99.90
11221;DHT22;8517;53.546;10.104;2022-10-13T13:17:06;18.60;99.90
11221;DHT22;8517;53.546;10.104;2022-10-13T13:19:34;18.60;99.90
11221;DHT22;8517;53.546;10.104;2022-10-13T13:22:04;18.60;99.90
11221;DHT22;8517;53.546;10.104;2022-10-13T13:24:32;18.60;99.90
11221;DHT22;8517;53.546;10.104;2022-10-13T13:26:58;18.50;99.90
11221;DHT22;8517;53.546;10.104;2022-10-13T13:29:27;18.60;99.90
11221;DHT22;8517;53.546;10.104;2022-10-13T13:31:55;18.60;99.90
11221;DHT22;8517;53.546;10.104;2022-10-13T13:34:21;18.60;99.90
11221;DHT22;8517;53.546;10.104;2022-10-13T13:36:48;18.60;99.90
11221;DHT22;8517;53.546;10.104;2022-10-13T13:39:15;18.60;99.90
11221;DHT22;8517;53.546;10.104;2022-10-13T13:41:45;18.60;99.90
11221;DHT22;8517;53.546;10.104;2022-10-13T13:44:12;18.60;99.90
11221;DHT22;8517;53.546;10.104;2022-10-13T13:46:39;18.60;99.90
11221;DHT22;8517;53.546;10.104;2022-10-13T13:49:08;18.60;99.90
11221;DHT22;8517;53.546;10.104;2022-10-13T13:51:34;18.60;99.90
11221;DHT22;8517;53.546;10.104;2022-10-13T13:54:01;18.60;99.90
11221;DHT22;8517;53.546;10.104;2022-10-13T13:56:28;18.60;99.90
11221;DHT22;8517;53.546;10.104;2022-10-13T13:58:55;18.60;99.90
11221;DHT22;8517;53.546;10.104;2022-10-13T14:01:21;18.60;99.90
11221;DHT22;8517;53.546;10.104;2022-10-13T14:03:49;18.50;99.90
11221;DHT22;8517;53.546;10.104;2022-10-13T14:06:18;18.50;99.90
11221;DHT22;8517;53.546;10.104;2022-10-13T14:08:46;18.50;99.90
11221;DHT22;8517;53.546;10.104;2022-10-13T14:11:13;18.50;99.90
11221;DHT22;8517;53.546;10.104;2022-10-13T14:13:39;18.50;99.90
11221;DHT22;8517;53.546;10.104;2022-10-13T14:16:07;18.50;99.90
11221;DHT22;8517;53.546;10.104;2022-10-13T14:18:36;18.40;99.90
11221;DHT22;8517;53.546;10.104;2022-10-13T14:21:05;18.40;99.90
11221;DHT22;8517;53.546;10.104;2022-10-13T14:23:34;18.40;99.90
11221;DHT22;8517;53.546;10.104;2022-10-13T14:26:04;18.40;99.90
11221;DHT22;8517;53.546;10.104;2022-10-13T14:28:31;18.40;99.90
11221;DHT22;8517;53.546;10.104;2022-10-13T14:30:58;18.40;99.90
11221;DHT22;8517;53.546;10.104;2022-10-13T14:33:25;18.30;99.90
11221;DHT22;8517;53.546;10.104;2022-10-13T14:35:58;18.40;99.90
11221;DHT22;8517;53.546;10.104;2022-10-13T14:38:25;18.30;99.90
11221;DHT22;8517;53.546;10.104;2022-10-13T14:40:57;18.30;99.90
11221;DHT22;8517;53.546;10.104;2022-10-13T14:43:24;18.30;99.90
11221;DHT22;8517;53.546;10.104;2022-10-13T14:45:51;18.40;99.90
11221;DHT22;8517;53.546;10.104;2022-10-13T14:48:17;18.30;99.90
11221;DHT22;8517;53.546;10.104;2022-10-13T14:50:44;18.40;99.90
11221;DHT22;8517;53.546;10.104;2022-10-13T14:53:11;18.40;99.90
11221;DHT22;8517;53.546;10.104;2022-10-13T14:55:40;18.40;99.90
11221;DHT22;8517;53.546;10.104;2022-10-13T14:58:08;18.40;99.90
11221;DHT22;8517;53.546;10.104;2022-10-13T15:00:35;18.40;99.90
11221;DHT22;8517;53.546;10.104;2022-10-13T15:03:03;18.40;99.90
11221;DHT22;8517;53.546;10.104;2022-10-13T15:05:30;18.40;99.90
11221;DHT22;8517;53.546;10.104;2022-10-13T15:07:56;18.40;99.90
11221;DHT22;8517;53.546;10.104;2022-10-13T15:10:23;18.40;99.90
11221;DHT22;8517;53.546;10.104;2022-10-13T15:12:50;18.40;99.90
11221;DHT22;8517;53.546;10.104;2022-10-13T15:15:18;18.40;99.90
11221;DHT22;8517;53.546;10.104;2022-10-13T15:17:45;18.40;99.90
11221;DHT22;8517;53.546;10.104;2022-10-13T15:20:12;18.40;99.90
11221;DHT22;8517;53.546;10.104;2022-10-13T15:22:38;18.40;99.90
11221;DHT22;8517;53.546;10.104;2022-10-13T15:25:06;18.40;99.90
11221;DHT22;8517;53.546;10.104;2022-10-13T15:27:40;18.40;99.90
11221;DHT22;8517;53.546;10.104;2022-10-13T15:30:09;18.40;99.90
11221;DHT22;8517;53.546;10.104;2022-10-13T15:32:38;18.40;99.90
11221;DHT22;8517;53.546;10.104;2022-10-13T15:35:05;18.40;99.90
11221;DHT22;8517;53.546;10.104;2022-10-13T15:37:32;18.30;99.90
11221;DHT22;8517;53.546;10.104;2022-10-13T15:39:58;18.40;99.90
11221;DHT22;8517;53.546;10.104;2022-10-13T15:42:25;18.40;99.90
11221;DHT22;8517;53.546;10.104;2022-10-13T15:45:01;18.40;99.90
11221;DHT22;8517;53.546;10.104;2022-10-13T15:47:44;18.40;99.90
11221;DHT22;8517;53.546;10.104;2022-10-13T15:50:11;18.40;99.90
11221;DHT22;8517;53.546;10.104;2022-10-13T15:52:38;18.30;99.90
11221;DHT22;8517;53.546;10.104;2022-10-13T15:55:06;18.40;99.90
11221;DHT22;8517;53.546;10.104;2022-10-13T15:57:33;18.30;99.90
11221;DHT22;8517;53.546;10.104;2022-10-13T15:59:59;18.40;99.90
11221;DHT22;8517;53.546;10.104;2022-10-13T16:02:26;18.40;99.90
11221;DHT22;8517;53.546;10.104;2022-10-13T16:04:54;18.40;99.90
11221;DHT22;8517;53.546;10.104;2022-10-13T16:07:43;18.30;99.90
11221;DHT22;8517;53.546;10.104;2022-10-13T16:10:11;18.30;99.90
11221;DHT22;8517;53.546;10.104;2022-10-13T16:12:38;18.30;99.90